createdAt,value
2019-04-28T00:02:22.368Z,4.00
2019-04-28T00:04:54.581Z,4.80
2019-04-28T00:07:26.945Z,5.40
2019-04-28T00:10:00.998Z,4.40
2019-04-28T00:12:34.373Z,1.00
2019-04-28T00:15:07.709Z,5.00
2019-04-28T00:17:41.897Z,4.40
2019-04-28T00:20:15.335Z,5.00
2019-04-28T00:22:56.510Z,3.80
2019-04-28T00:25:33.333Z,3.80
2019-04-28T00:28:06.119Z,2.80
2019-04-28T00:30:38.642Z,4.60
2019-04-28T00:33:11.748Z,4.80
2019-04-28T00:35:44.754Z,5.60
2019-04-28T00:38:17.353Z,4.80
2019-04-28T00:40:51.163Z,5.00
2019-04-28T00:43:24.499Z,4.00
2019-04-28T00:45:56.940Z,2.40
2019-04-28T00:48:30.918Z,4.00
2019-04-28T00:51:03.480Z,3.20
2019-04-28T00:53:35.837Z,2.80
2019-04-28T00:56:08.293Z,4.00
2019-04-28T00:58:41.714Z,4.00
2019-04-28T01:01:25.470Z,4.80
2019-04-28T01:03:58.250Z,4.40
2019-04-28T01:06:32.102Z,5.40
2019-04-28T01:09:04.874Z,4.00
2019-04-28T01:11:38.987Z,4.00
2019-04-28T01:14:11.603Z,3.60
2019-04-28T01:16:57.484Z,4.60
2019-04-28T01:19:31.230Z,5.40
2019-04-28T01:22:10.830Z,5.60
2019-04-28T01:24:43.858Z,3.00
2019-04-28T01:27:32.481Z,4.80
2019-04-28T01:30:09.173Z,5.80
2019-04-28T01:32:42.561Z,4.40
2019-04-28T01:35:15.551Z,4.00
2019-04-28T01:37:48.050Z,4.00
2019-04-28T01:40:20.629Z,3.80
2019-04-28T01:42:53.550Z,3.80
2019-04-28T01:45:26.102Z,6.00
2019-04-28T01:48:00.474Z,4.60
2019-04-28T01:50:32.291Z,5.40
2019-04-28T01:53:04.663Z,3.80
2019-04-28T01:55:36.954Z,6.00
2019-04-28T01:58:09.659Z,4.80
2019-04-28T02:00:42.308Z,4.20
2019-04-28T02:03:15.025Z,6.00
2019-04-28T02:05:47.511Z,4.20
2019-04-28T02:08:20.356Z,4.80
2019-04-28T02:10:52.900Z,5.00
2019-04-28T02:13:25.446Z,4.00
2019-04-28T02:15:59.863Z,4.60
2019-04-28T02:18:32.742Z,4.00
2019-04-28T02:21:09.662Z,5.20
2019-04-28T02:23:41.959Z,4.80
2019-04-28T02:26:14.517Z,5.60
2019-04-28T02:28:50.323Z,5.20
2019-04-28T02:31:24.441Z,5.20
2019-04-28T02:33:56.953Z,5.00
2019-04-28T02:36:31.211Z,3.20
2019-04-28T02:39:03.192Z,5.00
2019-04-28T02:41:36.944Z,4.40
2019-04-28T02:44:10.418Z,5.00
2019-04-28T02:46:43.678Z,5.40
2019-04-28T02:49:23.096Z,5.40
2019-04-28T02:51:56.642Z,6.00
2019-04-28T02:54:30.474Z,5.00
2019-04-28T02:57:03.195Z,0.80
2019-04-28T02:59:35.802Z,2.75
2019-04-28T03:02:10.360Z,2.75
2019-04-28T03:04:42.062Z,7.50
2019-04-28T03:07:14.596Z,6.00
2019-04-28T03:09:47.171Z,8.50
2019-04-28T03:12:21.515Z,7.50
2019-04-28T03:14:53.367Z,14.00
2019-04-28T03:17:25.546Z,11.75
2019-04-28T03:20:00.725Z,18.50
2019-04-28T03:22:33.752Z,16.25
2019-04-28T03:25:10.785Z,17.50
2019-04-28T03:27:51.857Z,10.25
2019-04-28T03:30:37.707Z,4.75
2019-04-28T03:33:18.485Z,6.75
2019-04-28T03:35:45.981Z,6.25
2019-04-28T03:38:21.211Z,6.50
2019-04-28T03:40:52.194Z,6.00
2019-04-28T03:43:24.513Z,28.25
2019-04-28T03:46:14.038Z,30.75
2019-04-28T03:48:46.488Z,26.25
2019-04-28T03:51:21.198Z,15.75
2019-04-28T03:53:52.472Z,15.75
2019-04-28T03:56:24.745Z,21.25
2019-04-28T03:58:57.044Z,19.50
2019-04-28T04:01:30.476Z,13.75
2019-04-28T04:04:03.540Z,9.50
2019-04-28T04:06:36.394Z,11.00
2019-04-28T04:09:11.081Z,22.50
2019-04-28T04:12:00.329Z,24.00
2019-04-28T04:14:34.742Z,27.25
2019-04-28T04:17:11.454Z,12.00
2019-04-28T04:19:44.059Z,8.25
2019-04-28T04:22:16.229Z,9.25
2019-04-28T04:24:49.807Z,6.75
2019-04-28T04:27:22.384Z,5.00
2019-04-28T04:29:54.869Z,6.50
2019-04-28T04:32:27.456Z,6.50
2019-04-28T04:35:00.724Z,7.50
2019-04-28T04:37:33.139Z,7.50
2019-04-28T04:40:05.975Z,7.75
2019-04-28T04:42:40.308Z,7.25
2019-04-28T04:45:12.426Z,8.75
2019-04-28T04:47:44.728Z,8.00
2019-04-28T04:50:16.937Z,7.00
2019-04-28T04:52:50.187Z,6.00
2019-04-28T04:55:22.519Z,8.00
2019-04-28T04:57:54.831Z,7.00
2019-04-28T05:00:44.502Z,7.00
2019-04-28T05:03:21.146Z,6.75
2019-04-28T05:05:51.954Z,5.50
2019-04-28T05:08:24.331Z,7.75
2019-04-28T05:10:56.667Z,2.25
2019-04-28T05:13:30.064Z,8.25
2019-04-28T05:16:02.316Z,8.00
2019-04-28T05:18:35.168Z,5.50
2019-04-28T05:21:07.366Z,8.00
2019-04-28T05:23:41.113Z,5.75
2019-04-28T05:26:13.246Z,7.00
2019-04-28T05:28:51.536Z,7.25
2019-04-28T05:31:23.414Z,6.75
2019-04-28T05:33:53.436Z,7.50
2019-04-28T05:36:25.747Z,6.25
2019-04-28T05:38:57.922Z,7.25
2019-04-28T05:41:30.068Z,7.50
2019-04-28T05:44:02.276Z,7.50
2019-04-28T05:46:34.536Z,7.50
2019-04-28T05:49:14.005Z,7.00
2019-04-28T05:51:47.534Z,8.25
2019-04-28T05:54:21.650Z,6.75
2019-04-28T05:57:02.441Z,7.00
2019-04-28T05:59:51.045Z,6.75
2019-04-28T06:02:27.805Z,9.00
2019-04-28T06:05:00.342Z,6.50
2019-04-28T06:07:46.278Z,8.00
2019-04-28T06:10:20.186Z,7.00
2019-04-28T06:12:52.724Z,6.50
2019-04-28T06:15:24.947Z,6.75
2019-04-28T06:18:00.021Z,8.00
2019-04-28T06:20:32.137Z,8.00
2019-04-28T06:23:04.643Z,7.75
2019-04-28T06:25:36.977Z,7.75
2019-04-28T06:28:09.510Z,7.00
2019-04-28T06:30:41.924Z,2.75
2019-04-28T06:33:14.388Z,8.00
2019-04-28T06:35:49.440Z,8.00
2019-04-28T06:38:21.740Z,6.75
2019-04-28T06:40:54.091Z,7.00
2019-04-28T06:43:26.636Z,7.00
2019-04-28T06:45:58.983Z,6.75
2019-04-28T06:48:31.198Z,6.50
2019-04-28T06:51:04.075Z,6.00
2019-04-28T06:53:36.343Z,7.75
2019-04-28T06:56:08.663Z,7.75
2019-04-28T06:58:41.049Z,3.25
2019-04-28T07:01:13.346Z,7.75
2019-04-28T07:03:45.522Z,7.75
2019-04-28T07:06:17.875Z,8.50
2019-04-28T07:08:50.230Z,6.00
2019-04-28T07:11:23.017Z,4.75
2019-04-28T07:13:55.161Z,7.75
2019-04-28T07:16:27.329Z,5.50
2019-04-28T07:18:59.791Z,8.50
2019-04-28T07:21:42.031Z,7.25
2019-04-28T07:24:14.270Z,6.75
2019-04-28T07:26:46.763Z,7.00
2019-04-28T07:29:18.906Z,9.00
2019-04-28T07:31:51.172Z,8.75
2019-04-28T07:34:23.975Z,6.25
2019-04-28T07:36:56.966Z,4.50
2019-04-28T07:39:29.136Z,6.25
2019-04-28T07:42:01.289Z,7.00
2019-04-28T07:44:34.815Z,4.75
2019-04-28T07:47:07.054Z,7.00
2019-04-28T07:49:39.186Z,8.00
2019-04-28T07:52:12.934Z,4.50
2019-04-28T07:54:45.150Z,6.75
2019-04-28T07:57:17.500Z,6.25
2019-04-28T07:59:50.233Z,4.50
2019-04-28T08:02:23.286Z,6.00
2019-04-28T08:04:55.563Z,7.25
2019-04-28T08:07:28.115Z,4.75
2019-04-28T08:10:00.477Z,6.25
2019-04-28T08:12:33.089Z,7.25
2019-04-28T08:15:06.135Z,6.00
2019-04-28T08:17:38.964Z,4.75
2019-04-28T08:20:11.486Z,6.75
2019-04-28T08:22:43.637Z,6.25
2019-04-28T08:25:15.986Z,5.50
2019-04-28T08:27:48.240Z,5.50
2019-04-28T08:30:20.395Z,6.75
2019-04-28T08:33:03.504Z,5.25
2019-04-28T08:35:36.660Z,6.00
2019-04-28T08:38:09.547Z,7.00
2019-04-28T08:40:41.694Z,7.25
2019-04-28T08:43:13.859Z,7.00
2019-04-28T08:45:46.206Z,5.00
2019-04-28T08:48:19.208Z,5.75
2019-04-28T08:50:51.748Z,5.25
2019-04-28T08:53:23.992Z,6.25
2019-04-28T08:55:56.113Z,7.25
2019-04-28T08:58:28.459Z,4.50
2019-04-28T09:01:01.020Z,6.00
2019-04-28T09:03:33.284Z,5.25
2019-04-28T09:06:05.968Z,6.75
2019-04-28T09:08:38.282Z,6.50
2019-04-28T09:11:10.854Z,6.50
2019-04-28T09:13:43.976Z,7.25
2019-04-28T09:16:16.435Z,5.25
2019-04-28T09:18:48.793Z,6.00
2019-04-28T09:21:21.009Z,6.25
2019-04-28T09:23:53.546Z,7.25
2019-04-28T09:26:26.137Z,6.00
2019-04-28T09:28:58.288Z,5.25
2019-04-28T09:31:30.882Z,5.25
2019-04-28T09:34:03.210Z,6.50
2019-04-28T09:36:35.629Z,6.25
2019-04-28T09:39:10.725Z,5.00
2019-04-28T09:41:44.519Z,6.00
2019-04-28T09:44:20.813Z,6.00
2019-04-28T09:46:53.198Z,4.75
2019-04-28T09:49:25.558Z,6.00
2019-04-28T09:51:57.702Z,7.00
2019-04-28T09:54:30.207Z,5.50
2019-04-28T09:57:02.490Z,5.75
2019-04-28T09:59:34.657Z,6.00
2019-04-28T10:02:07.094Z,6.25
2019-04-28T10:04:41.733Z,6.00
2019-04-28T10:07:13.089Z,6.25
2019-04-28T10:09:46.437Z,6.00
2019-04-28T10:12:26.825Z,6.75
2019-04-28T10:14:52.762Z,6.00
2019-04-28T10:17:24.965Z,7.50
2019-04-28T10:19:57.228Z,5.50
2019-04-28T10:22:29.368Z,6.25
2019-04-28T10:25:02.057Z,0.75
2019-04-28T10:27:35.205Z,6.00
2019-04-28T10:30:10.158Z,5.75
2019-04-28T10:32:42.290Z,5.00
2019-04-28T10:35:16.113Z,6.00
2019-04-28T10:37:48.614Z,5.00
2019-04-28T10:40:27.363Z,6.00
2019-04-28T10:42:59.616Z,5.50
2019-04-28T10:45:33.342Z,4.25
2019-04-28T10:48:05.769Z,5.25
2019-04-28T10:50:37.991Z,5.75
2019-04-28T10:53:10.136Z,6.00
2019-04-28T10:55:42.509Z,5.25
2019-04-28T10:58:14.846Z,6.25
2019-04-28T11:00:47.136Z,6.00
2019-04-28T11:03:19.296Z,6.75
2019-04-28T11:05:51.455Z,6.50
2019-04-28T11:08:31.642Z,6.75
2019-04-28T11:11:05.466Z,6.75
2019-04-28T11:13:38.046Z,7.00
2019-04-28T11:16:10.790Z,5.50
2019-04-28T11:18:42.899Z,7.00
2019-04-28T11:21:15.403Z,7.00
2019-04-28T11:23:48.135Z,4.00
2019-04-28T11:26:20.371Z,7.25
2019-04-28T11:28:53.021Z,6.25
2019-04-28T11:31:25.168Z,7.50
2019-04-28T11:34:01.614Z,5.75
2019-04-28T11:36:33.800Z,7.25
2019-04-28T11:39:08.378Z,6.25
2019-04-28T11:41:42.051Z,6.00
2019-04-28T11:44:14.490Z,4.25
2019-04-28T11:46:48.186Z,6.25
2019-04-28T11:49:20.511Z,5.00
2019-04-28T11:51:52.873Z,6.50
2019-04-28T11:54:25.211Z,6.00
2019-04-28T11:56:57.569Z,3.75
2019-04-28T11:59:29.869Z,6.75
2019-04-28T12:02:02.040Z,7.50
2019-04-28T12:04:34.275Z,6.75
2019-04-28T12:07:07.381Z,6.50
2019-04-28T12:09:41.072Z,6.00
2019-04-28T12:12:30.946Z,6.50
2019-04-28T12:15:13.736Z,5.00
2019-04-28T12:17:47.767Z,7.75
2019-04-28T12:20:23.974Z,6.75
2019-04-28T12:22:56.153Z,7.50
2019-04-28T12:25:28.395Z,7.50
2019-04-28T12:28:02.135Z,6.50
2019-04-28T12:30:34.483Z,6.75
2019-04-28T12:33:06.942Z,7.50
2019-04-28T12:35:47.533Z,8.00
2019-04-28T12:38:12.917Z,7.00
2019-04-28T12:40:45.892Z,6.75
2019-04-28T12:43:18.455Z,6.00
2019-04-28T12:45:51.106Z,7.75
2019-04-28T12:48:23.780Z,7.25
2019-04-28T12:50:57.338Z,3.50
2019-04-28T12:53:29.479Z,6.75
2019-04-28T12:56:02.408Z,7.00
2019-04-28T12:58:34.937Z,6.00
2019-04-28T13:01:17.694Z,7.25
2019-04-28T13:03:52.195Z,5.75
2019-04-28T13:06:25.138Z,4.25
2019-04-28T13:08:58.194Z,7.00
2019-04-28T13:11:30.546Z,6.50
2019-04-28T13:14:03.230Z,6.25
2019-04-28T13:16:35.586Z,6.75
2019-04-28T13:19:08.652Z,5.00
2019-04-28T13:21:40.808Z,6.25
2019-04-28T13:24:13.976Z,7.25
2019-04-28T13:26:46.120Z,7.00
2019-04-28T13:29:18.557Z,7.00
2019-04-28T13:31:51.260Z,7.00
2019-04-28T13:34:24.771Z,6.75
2019-04-28T13:36:57.098Z,6.50
2019-04-28T13:39:34.725Z,6.25
2019-04-28T13:42:07.240Z,7.25
2019-04-28T13:44:52.877Z,6.00
2019-04-28T13:47:25.195Z,6.00
2019-04-28T13:49:58.930Z,6.00
2019-04-28T13:52:31.374Z,6.50
2019-04-28T13:55:05.913Z,6.00
2019-04-28T13:57:38.387Z,4.00
2019-04-28T14:00:12.387Z,6.25
2019-04-28T14:02:55.335Z,6.00
2019-04-28T14:05:47.075Z,6.75
2019-04-28T14:08:19.340Z,7.00
2019-04-28T14:10:51.574Z,8.75
2019-04-28T14:13:24.002Z,7.00
2019-04-28T14:15:56.389Z,7.00
2019-04-28T14:18:28.587Z,7.00
2019-04-28T14:21:01.357Z,7.75
2019-04-28T14:23:34.070Z,6.25
2019-04-28T14:26:06.558Z,8.00
2019-04-28T14:28:38.736Z,6.50
2019-04-28T14:31:10.920Z,7.00
2019-04-28T14:33:43.164Z,7.50
2019-04-28T14:36:15.777Z,7.25
2019-04-28T14:38:47.932Z,8.00
2019-04-28T14:41:20.307Z,6.25
2019-04-28T14:43:52.793Z,6.75
2019-04-28T14:46:25.354Z,6.25
2019-04-28T14:48:58.790Z,7.50
2019-04-28T14:51:30.964Z,8.75
2019-04-28T14:54:03.333Z,7.25
2019-04-28T14:56:35.585Z,6.50
2019-04-28T14:59:07.730Z,6.25
2019-04-28T15:01:53.385Z,7.00
2019-04-28T15:04:26.948Z,7.00
2019-04-28T15:07:00.660Z,7.25
2019-04-28T15:09:34.448Z,6.50
2019-04-28T15:12:07.286Z,7.00
2019-04-28T15:14:39.669Z,5.75
2019-04-28T15:17:12.192Z,7.00
2019-04-28T15:19:44.559Z,7.25
2019-04-28T15:22:17.382Z,8.75
2019-04-28T15:24:50.528Z,6.75
2019-04-28T15:27:22.814Z,12.00
2019-04-28T15:29:54.956Z,14.25
2019-04-28T15:32:27.207Z,9.25
2019-04-28T15:34:59.346Z,12.50
2019-04-28T15:37:31.552Z,14.50
2019-04-28T15:40:03.946Z,10.50
2019-04-28T15:42:36.438Z,6.00
2019-04-28T15:45:10.296Z,8.00
2019-04-28T15:47:43.087Z,6.75
2019-04-28T15:50:15.333Z,6.50
2019-04-28T15:52:49.063Z,4.00
2019-04-28T15:55:38.618Z,8.25
2019-04-28T15:58:28.518Z,5.25
2019-04-28T16:01:02.267Z,5.80
2019-04-28T16:03:34.672Z,7.60
2019-04-28T16:06:07.229Z,6.20
2019-04-28T16:08:39.466Z,6.20
2019-04-28T16:11:11.843Z,7.00
2019-04-28T16:13:44.007Z,13.50
2019-04-28T16:16:16.202Z,12.25
2019-04-28T16:18:48.576Z,14.75
2019-04-28T16:21:23.809Z,4.25
2019-04-28T16:23:56.853Z,3.75
2019-04-28T16:26:30.600Z,7.60
2019-04-28T16:29:03.229Z,7.60
2019-04-28T16:31:35.740Z,6.00
2019-04-28T16:34:08.359Z,6.40
2019-04-28T16:36:40.611Z,6.20
2019-04-28T16:39:13.382Z,6.80
2019-04-28T16:41:47.304Z,7.00
2019-04-28T16:44:21.574Z,6.20
2019-04-28T16:46:54.101Z,6.20
2019-04-28T16:49:26.566Z,7.00
2019-04-28T16:51:58.946Z,7.00
2019-04-28T16:54:31.109Z,8.40
2019-04-28T16:57:04.946Z,6.20
2019-04-28T16:59:57.062Z,7.20
2019-04-28T17:02:33.612Z,8.00
2019-04-28T17:05:06.545Z,7.00
2019-04-28T17:07:46.049Z,7.20
2019-04-28T17:10:12.719Z,8.60
2019-04-28T17:12:45.096Z,7.20
2019-04-28T17:15:18.704Z,6.60
2019-04-28T17:17:51.149Z,6.20
2019-04-28T17:20:23.783Z,7.00
2019-04-28T17:22:56.182Z,2.40
2019-04-28T17:25:29.044Z,7.20
2019-04-28T17:28:01.856Z,5.20
2019-04-28T17:30:34.338Z,4.00
2019-04-28T17:33:06.921Z,6.60
2019-04-28T17:35:39.229Z,7.60
2019-04-28T17:38:11.792Z,4.80
2019-04-28T17:40:44.489Z,4.00
2019-04-28T17:43:17.490Z,5.00
2019-04-28T17:48:52.795Z,36.50
2019-04-28T17:51:25.136Z,43.00
2019-04-28T17:53:57.309Z,66.50
2019-04-28T17:56:29.580Z,30.50
2019-04-28T17:59:02.779Z,27.50
2019-04-28T18:01:47.861Z,25.75
2019-04-28T18:04:31.580Z,12.60
2019-04-28T18:07:05.236Z,24.40
2019-04-28T18:09:37.544Z,14.80
2019-04-28T18:12:09.865Z,14.20
2019-04-28T18:14:43.650Z,15.20
2019-04-28T18:17:33.420Z,10.80
2019-04-28T18:20:08.042Z,7.20
2019-04-28T18:22:40.643Z,8.00
2019-04-28T18:25:13.142Z,6.40
2019-04-28T18:27:45.653Z,11.20
2019-04-28T18:30:19.368Z,10.20
2019-04-28T18:32:53.109Z,16.60
2019-04-28T18:35:29.749Z,13.60
2019-04-28T18:38:03.290Z,8.80
2019-04-28T18:40:36.946Z,8.00
2019-04-28T18:43:22.414Z,8.20
2019-04-28T18:45:54.649Z,8.20
2019-04-28T18:48:26.810Z,7.00
2019-04-28T18:50:59.453Z,6.80
2019-04-28T18:53:31.771Z,11.40
2019-04-28T18:56:04.003Z,11.80
2019-04-28T18:58:36.198Z,13.60
2019-04-28T19:01:25.025Z,12.40
2019-04-28T19:03:57.397Z,4.40
2019-04-28T19:06:29.543Z,7.00
2019-04-28T19:09:19.391Z,12.60
2019-04-28T19:12:08.967Z,10.00
2019-04-28T19:14:42.606Z,14.00
2019-04-28T19:17:19.123Z,5.80
2019-04-28T19:19:51.586Z,3.20
2019-04-28T19:22:24.932Z,8.40
2019-04-28T19:24:57.463Z,6.00
2019-04-28T19:27:29.734Z,7.20
2019-04-28T19:30:02.433Z,5.00
2019-04-28T19:32:35.237Z,6.20
2019-04-28T19:35:08.051Z,6.00
2019-04-28T19:37:40.899Z,5.80
2019-04-28T19:40:13.601Z,5.00
2019-04-28T19:42:46.057Z,5.20
2019-04-28T19:45:20.182Z,2.40
2019-04-28T19:47:52.637Z,4.20
2019-04-28T19:50:25.344Z,4.00
2019-04-28T19:52:57.916Z,3.40
2019-04-28T19:55:31.792Z,5.20
2019-04-28T19:58:08.513Z,3.40
2019-04-28T20:00:45.258Z,1.40
2019-04-28T20:03:18.744Z,5.40
2019-04-28T20:05:51.254Z,4.60
2019-04-28T20:08:23.693Z,4.40
2019-04-28T20:10:57.031Z,4.80
2019-04-28T20:13:31.395Z,4.00
2019-04-28T20:16:03.337Z,4.00
2019-04-28T20:18:36.710Z,4.20
2019-04-28T20:21:09.235Z,3.60
2019-04-28T20:23:41.552Z,3.20
2019-04-28T20:26:15.194Z,4.60
2019-04-28T20:28:47.625Z,3.00
2019-04-28T20:31:20.357Z,4.20
2019-04-28T20:33:52.677Z,3.60
2019-04-28T20:36:35.603Z,3.60
2019-04-28T20:39:12.972Z,1.20
2019-04-28T20:41:47.886Z,2.40
2019-04-28T20:44:20.215Z,1.40
2019-04-28T20:46:52.602Z,1.60
2019-04-28T20:49:24.926Z,2.80
2019-04-28T20:51:57.266Z,2.20
2019-04-28T20:54:29.926Z,2.80
2019-04-28T20:57:02.448Z,3.40
2019-04-28T20:59:34.883Z,2.80
2019-04-28T21:02:07.246Z,2.00
2019-04-28T21:04:39.678Z,3.80
2019-04-28T21:07:12.015Z,2.40
2019-04-28T21:09:44.379Z,3.20
2019-04-28T21:12:16.724Z,0.00
2019-04-28T21:14:49.042Z,2.40
2019-04-28T21:17:21.411Z,2.40
2019-04-28T21:19:53.738Z,2.20
2019-04-28T21:22:26.096Z,4.00
2019-04-28T21:24:58.415Z,3.40
2019-04-28T21:27:30.932Z,3.00
2019-04-28T21:30:04.677Z,3.20
2019-04-28T21:32:37.561Z,3.20
2019-04-28T21:35:10.274Z,1.20
2019-04-28T21:37:42.734Z,3.00
2019-04-28T21:40:16.185Z,3.80
2019-04-28T21:42:56.015Z,4.60
2019-04-28T21:45:45.495Z,2.50
2019-04-28T21:48:33.895Z,2.40
2019-04-28T21:51:06.639Z,3.60
2019-04-28T21:53:39.929Z,2.60
2019-04-28T21:56:12.470Z,2.00
2019-04-28T21:58:45.004Z,3.00
2019-04-28T22:01:20.014Z,3.60
2019-04-28T22:03:52.485Z,2.80
2019-04-28T22:06:24.809Z,2.20
2019-04-28T22:08:57.551Z,3.00
2019-04-28T22:11:29.895Z,1.40
2019-04-28T22:14:02.784Z,4.20
2019-04-28T22:16:35.594Z,3.60
2019-04-28T22:19:09.790Z,4.00
2019-04-28T22:21:41.748Z,0.20
2019-04-28T22:24:15.594Z,4.20
2019-04-28T22:26:52.236Z,2.60
2019-04-28T22:29:24.783Z,3.20
2019-04-28T22:31:57.549Z,4.20
2019-04-28T22:34:30.374Z,4.60
2019-04-28T22:37:03.079Z,3.00
2019-04-28T22:39:35.463Z,3.80
2019-04-28T22:42:09.114Z,5.20
2019-04-28T22:44:41.493Z,2.80
2019-04-28T22:47:13.931Z,0.60
2019-04-28T22:49:46.425Z,3.00
2019-04-28T22:52:18.949Z,2.40
2019-04-28T22:54:52.716Z,2.60
2019-04-28T22:57:35.647Z,3.20
2019-04-28T23:00:12.130Z,3.20
2019-04-28T23:02:45.811Z,2.60
2019-04-28T23:05:18.170Z,2.60
2019-04-28T23:07:50.515Z,1.40
2019-04-28T23:10:23.054Z,3.20
2019-04-28T23:12:55.418Z,2.60
2019-04-28T23:15:27.771Z,2.40
2019-04-28T23:18:00.221Z,3.00
2019-04-28T23:20:33.951Z,3.20
2019-04-28T23:23:07.666Z,2.80
2019-04-28T23:25:40.028Z,3.60
2019-04-28T23:30:57.827Z,4.60
2019-04-28T23:33:30.803Z,3.00
2019-04-28T23:36:03.324Z,3.40
2019-04-28T23:38:35.714Z,3.80
2019-04-28T23:41:15.839Z,2.00
2019-04-28T23:43:48.167Z,3.00
2019-04-28T23:46:20.560Z,3.00
2019-04-28T23:48:52.961Z,4.20
2019-04-28T23:51:38.289Z,4.20
2019-04-28T23:54:10.654Z,2.80
2019-04-28T23:56:43.027Z,2.80
2019-04-28T23:59:15.701Z,4.00
